Ursa Minor — ICGH — position and weather

sailwx.info

Track history (hours):
 
Tides and Currents Weather Stations Pressure Air Temp Water Temp Dewpoint Dewpoint Depression Visibility Wind Speed Wind Dir Waves Ship Positions

Ursa Minor

Last reported at 2015-Feb-07 12:31 UTC. Time now 2015-Mar-04 00:11 UTC.
Position N 37°57' E 015°37'.
Warning: this ship's position is 24 days out of date.

Length 205 m; draft 7.8 m.

MMSI: 247082300.

Date/timePositionNaut miles runAvg speedWind from/ knotsBaromVisibWave heightAir tempDewpointWater temp
2015-Feb-07 12:31N 37°57' E 015°37'1310.6
2015-Feb-07 11:18N 38°09' E 015°35'141 8.3
2015-Feb-06 18:21N 40°20' E 014°26'15 8.4
2015-Feb-06 16:32N 40°27' E 014°09'8 8.2
2015-Feb-06 15:31N 40°32' E 014°01'8 8.3
2015-Feb-06 14:33N 40°37' E 013°52'8 7.6
2015-Feb-06 13:33N 40°42' E 013°44'7 7.4
2015-Feb-06 12:33N 40°46' E 013°36'8 7.9
2015-Feb-06 11:33N 40°51' E 013°28'7 1.4
2015-Feb-06 06:33N 40°56' E 013°22'8 8.0
2015-Feb-06 05:33N 40°51' E 013°30'5 5.1
2015-Feb-06 04:33N 40°48' E 013°35'8 7.8
2015-Feb-06 03:34N 40°53' E 013°27'217 9.9
2015-Feb-05 05:33N 43°28' E 010°03'1010.7
2015-Feb-05 04:34N 43°35' E 009°53'1111.1
2015-Feb-05 03:34N 43°44' E 009°42'1111.1
2015-Feb-05 02:33N 43°52' E 009°33'1111.2
2015-Feb-05 01:34N 44°01' E 009°22'1111.2
2015-Feb-05 00:34N 44°08' E 009°11'1111.0
2015-Feb-04 23:34N 44°17' E 009°01'10 9.9
2015-Feb-04 22:33N 44°24' E 008°52'0 0.0
2015-Feb-04 21:30N 44°24' E 008°52'0 0.0
2015-Feb-04 20:33N 44°24' E 008°52'0 0.0
2015-Feb-04 19:33N 44°24' E 008°52'0 0.0
2015-Feb-04 18:30N 44°24' E 008°52'0 0.0
2015-Feb-04 17:28N 44°24' E 008°52'0 0.0
2015-Feb-04 16:28N 44°24' E 008°52'0 0.0
2015-Feb-04 15:31N 44°24' E 008°52'0 0.0
2015-Feb-04 14:28N 44°24' E 008°52'0 0.0
2015-Feb-04 13:28N 44°24' E 008°52'0 0.0
2015-Feb-04 12:33N 44°24' E 008°52'0 0.0
2015-Feb-04 11:33N 44°24' E 008°52'0 0.0
2015-Feb-04 10:33N 44°24' E 008°52'0 0.0
2015-Feb-04 09:33N 44°24' E 008°52'0 0.0
2015-Feb-04 08:33N 44°24' E 008°52'0 0.0
2015-Feb-04 07:33N 44°24' E 008°52'0 0.0
2015-Feb-04 06:33N 44°24' E 008°52'0 0.0
2015-Feb-04 05:33N 44°24' E 008°52'0 0.0
2015-Feb-04 04:33N 44°24' E 008°52'0 0.0
2015-Feb-04 03:33N 44°24' E 008°52'0 0.0
2015-Feb-04 02:33N 44°24' E 008°52'0 0.0
2015-Feb-04 01:33N 44°24' E 008°52'0 0.0
2015-Feb-04 00:33N 44°24' E 008°52'0 0.0
2015-Feb-03 23:33N 44°24' E 008°52'0 0.0
2015-Feb-03 22:27N 44°24' E 008°52'0 0.0
2015-Feb-03 21:33N 44°24' E 008°52'0 0.0
2015-Feb-03 20:27N 44°24' E 008°52'0 0.0
2015-Feb-03 19:33N 44°24' E 008°52'0 0.0
2015-Feb-03 18:33N 44°24' E 008°52'0 0.0
2015-Feb-03 17:33N 44°24' E 008°52'0 0.0
2015-Feb-03 16:27N 44°24' E 008°52'0 0.0
2015-Feb-03 15:33N 44°24' E 008°52'0 0.0
2015-Feb-03 14:33N 44°24' E 008°52'0 0.0
2015-Feb-03 13:33N 44°24' E 008°52'0 0.0
2015-Feb-03 12:33N 44°24' E 008°52'0 0.0
2015-Feb-03 11:33N 44°24' E 008°52'0 0.0
2015-Feb-03 10:22N 44°24' E 008°52'0 0.0
2015-Feb-03 09:28N 44°24' E 008°52'0 0.2
2015-Feb-03 08:31N 44°24' E 008°52'1 1.2
2015-Feb-03 07:33N 44°24' E 008°54'1010.4
2015-Feb-03 06:33N 44°16' E 009°03'1211.8
2015-Feb-03 05:33N 44°08' E 009°15'1211.6
2015-Feb-03 04:33N 43°59' E 009°26'1111.1
2015-Feb-03 03:33N 43°51' E 009°36'1110.6
2015-Feb-03 02:33N 43°43' E 009°45'1010.2
2015-Feb-03 01:33N 43°35' E 009°55'1010.3
2015-Feb-03 00:33N 43°28' E 010°05'1010.3
2015-Feb-02 23:33N 43°19' E 010°12'39210.8
2015-Feb-01 11:17N 38°14' E 015°37'19 5.0
2015-Feb-01 07:32N 37°55' E 015°37'  
Track history (hours):
 
Tides and Currents Weather Stations Pressure Air Temp Water Temp Dewpoint Dewpoint Depression Visibility Wind Speed Wind Dir Waves Ship Positions

Ursa Minor

Last reported at 2015-Feb-07 12:31 UTC. Time now 2015-Mar-04 00:11 UTC.
Position N 37°57' E 015°37'.
Warning: this ship's position is 24 days out of date.

Length 205 m; draft 7.8 m.

MMSI: 247082300.

Date/timePositionNaut miles runAvg speedWind from/ knotsBaromVisibWave heightAir tempDewpointWater temp
2015-Feb-07 12:31N 37°57' E 015°37'1310.6
2015-Feb-07 11:18N 38°09' E 015°35'141 8.3
2015-Feb-06 18:21N 40°20' E 014°26'15 8.4
2015-Feb-06 16:32N 40°27' E 014°09'8 8.2
2015-Feb-06 15:31N 40°32' E 014°01'8 8.3
2015-Feb-06 14:33N 40°37' E 013°52'8 7.6
2015-Feb-06 13:33N 40°42' E 013°44'7 7.4
2015-Feb-06 12:33N 40°46' E 013°36'8 7.9
2015-Feb-06 11:33N 40°51' E 013°28'7 1.4
2015-Feb-06 06:33N 40°56' E 013°22'8 8.0
2015-Feb-06 05:33N 40°51' E 013°30'5 5.1
2015-Feb-06 04:33N 40°48' E 013°35'8 7.8
2015-Feb-06 03:34N 40°53' E 013°27'217 9.9
2015-Feb-05 05:33N 43°28' E 010°03'1010.7
2015-Feb-05 04:34N 43°35' E 009°53'1111.1
2015-Feb-05 03:34N 43°44' E 009°42'1111.1
2015-Feb-05 02:33N 43°52' E 009°33'1111.2
2015-Feb-05 01:34N 44°01' E 009°22'1111.2
2015-Feb-05 00:34N 44°08' E 009°11'1111.0
2015-Feb-04 23:34N 44°17' E 009°01'10 9.9
2015-Feb-04 22:33N 44°24' E 008°52'0 0.0
2015-Feb-04 21:30N 44°24' E 008°52'0 0.0
2015-Feb-04 20:33N 44°24' E 008°52'0 0.0
2015-Feb-04 19:33N 44°24' E 008°52'0 0.0
2015-Feb-04 18:30N 44°24' E 008°52'0 0.0
2015-Feb-04 17:28N 44°24' E 008°52'0 0.0
2015-Feb-04 16:28N 44°24' E 008°52'0 0.0
2015-Feb-04 15:31N 44°24' E 008°52'0 0.0
2015-Feb-04 14:28N 44°24' E 008°52'0 0.0
2015-Feb-04 13:28N 44°24' E 008°52'0 0.0
2015-Feb-04 12:33N 44°24' E 008°52'0 0.0
2015-Feb-04 11:33N 44°24' E 008°52'0 0.0
2015-Feb-04 10:33N 44°24' E 008°52'0 0.0
2015-Feb-04 09:33N 44°24' E 008°52'0 0.0
2015-Feb-04 08:33N 44°24' E 008°52'0 0.0
2015-Feb-04 07:33N 44°24' E 008°52'0 0.0
2015-Feb-04 06:33N 44°24' E 008°52'0 0.0
2015-Feb-04 05:33N 44°24' E 008°52'0 0.0
2015-Feb-04 04:33N 44°24' E 008°52'0 0.0
2015-Feb-04 03:33N 44°24' E 008°52'0 0.0
2015-Feb-04 02:33N 44°24' E 008°52'0 0.0
2015-Feb-04 01:33N 44°24' E 008°52'0 0.0
2015-Feb-04 00:33N 44°24' E 008°52'0 0.0
2015-Feb-03 23:33N 44°24' E 008°52'0 0.0
2015-Feb-03 22:27N 44°24' E 008°52'0 0.0
2015-Feb-03 21:33N 44°24' E 008°52'0 0.0
2015-Feb-03 20:27N 44°24' E 008°52'0 0.0
2015-Feb-03 19:33N 44°24' E 008°52'0 0.0
2015-Feb-03 18:33N 44°24' E 008°52'0 0.0
2015-Feb-03 17:33N 44°24' E 008°52'0 0.0
2015-Feb-03 16:27N 44°24' E 008°52'0 0.0
2015-Feb-03 15:33N 44°24' E 008°52'0 0.0
2015-Feb-03 14:33N 44°24' E 008°52'0 0.0
2015-Feb-03 13:33N 44°24' E 008°52'0 0.0
2015-Feb-03 12:33N 44°24' E 008°52'0 0.0
2015-Feb-03 11:33N 44°24' E 008°52'0 0.0
2015-Feb-03 10:22N 44°24' E 008°52'0 0.0
2015-Feb-03 09:28N 44°24' E 008°52'0 0.2
2015-Feb-03 08:31N 44°24' E 008°52'1 1.2
2015-Feb-03 07:33N 44°24' E 008°54'1010.4
2015-Feb-03 06:33N 44°16' E 009°03'1211.8
2015-Feb-03 05:33N 44°08' E 009°15'1211.6
2015-Feb-03 04:33N 43°59' E 009°26'1111.1
2015-Feb-03 03:33N 43°51' E 009°36'1110.6
2015-Feb-03 02:33N 43°43' E 009°45'1010.2
2015-Feb-03 01:33N 43°35' E 009°55'1010.3
2015-Feb-03 00:33N 43°28' E 010°05'1010.3
2015-Feb-02 23:33N 43°19' E 010°12'39210.8
2015-Feb-01 11:17N 38°14' E 015°37'19 5.0
2015-Feb-01 07:32N 37°55' E 015°37'  

Dump ship's entire track history